Time;durP1;ratioP1;P1;durP2;ratioP2;P2;SDS_P1;SDS_P2;PMS_P1;PMS_P2;Temp;Humidity;BMP_temperature;BMP_pressure;BME280_temperature;BME280_humidity;BME280_pressure;Samples;Min_cycle;Max_cycle;Signal;HPM_P1;HPM_P2
2023/05/06 00:00:05;;;;;;;0.00;0.00;;;;;;;;;;5115063;28;20043;-88
2023/05/06 00:02:31;;;;;;;0.00;0.00;;;;;;;;;;5115141;28;20071;-88
2023/05/06 00:04:57;;;;;;;0.00;0.00;;;;;;;;;;5114893;28;20043;-88
2023/05/06 00:07:23;;;;;;;0.00;0.00;;;;;;;;;;5098114;28;20051;-87
2023/05/06 00:09:49;;;;;;;0.00;0.00;;;;;;;;;;5114594;28;20055;-88
2023/05/06 00:12:15;;;;;;;0.00;0.00;;;;;;;;;;5115139;28;20074;-88
2023/05/06 00:14:41;;;;;;;0.00;0.00;;;;;;;;;;5114886;28;20040;-88
2023/05/06 00:17:07;;;;;;;0.00;0.00;;;;;;;;;;5100321;28;20043;-88
2023/05/06 00:19:33;;;;;;;0.00;0.00;;;;;;;;;;5114811;28;20047;-88
2023/05/06 00:22:00;;;;;;;0.10;0.05;;;;;;;;;;5115069;28;20501;-88
2023/05/06 00:24:26;;;;;;;0.00;0.00;;;;;;;;;;5097502;28;20039;-88
2023/05/06 00:26:52;;;;;;;0.00;0.00;;;;;;;;;;5114577;28;20036;-89
2023/05/06 00:29:18;;;;;;;0.00;0.00;;;;;;;;;;5114529;28;20120;-88
2023/05/06 00:31:44;;;;;;;0.00;0.00;;;;;;;;;;5114921;28;20526;-88
2023/05/06 00:34:10;;;;;;;0.00;0.00;;;;;;;;;;5114434;28;20493;-88
2023/05/06 00:36:37;;;;;;;0.00;0.00;;;;;;;;;;5097563;28;20031;-88
2023/05/06 00:39:03;;;;;;;0.00;0.00;;;;;;;;;;5113504;28;20118;-88
2023/05/06 00:41:32;;;;;;;0.00;0.00;;;;;;;;;;5097195;28;20125;-88
2023/05/06 00:43:58;;;;;;;0.00;0.00;;;;;;;;;;5114464;28;20075;-88
2023/05/06 00:46:24;;;;;;;0.10;0.10;;;;;;;;;;5114109;28;20071;-88
2023/05/06 00:48:51;;;;;;;0.00;0.00;;;;;;;;;;5097411;28;20475;-88
2023/05/06 00:51:17;;;;;;;0.00;0.00;;;;;;;;;;5096789;28;20043;-88
2023/05/06 00:53:46;;;;;;;0.00;0.00;;;;;;;;;;5114366;28;20035;-88
2023/05/06 00:56:12;;;;;;;0.00;0.00;;;;;;;;;;5113703;28;20070;-88
2023/05/06 00:58:38;;;;;;;0.00;0.00;;;;;;;;;;5114016;28;20074;-89
2023/05/06 01:01:05;;;;;;;0.00;0.00;;;;;;;;;;5096630;28;20079;-88
2023/05/06 01:03:31;;;;;;;0.00;0.00;;;;;;;;;;5114057;28;20039;-88
2023/05/06 01:05:57;;;;;;;0.00;0.00;;;;;;;;;;5113729;28;20043;-88
2023/05/06 01:08:35;;;;;;;0.00;0.00;;;;;;;;;;5113520;28;20050;-88
2023/05/06 01:11:11;;;;;;;0.00;0.00;;;;;;;;;;5113694;28;20199;-89
2023/05/06 01:13:46;;;;;;;0.00;0.00;;;;;;;;;;5113833;28;20088;-90
2023/05/06 01:16:14;;;;;;;0.00;0.00;;;;;;;;;;5096406;28;20047;-89
2023/05/06 01:18:41;;;;;;;0.00;0.00;;;;;;;;;;5113756;28;20035;-88
2023/05/06 01:21:09;;;;;;;0.00;0.00;;;;;;;;;;5096514;28;20604;-88
2023/05/06 01:23:55;;;;;;;0.00;0.00;;;;;;;;;;5113575;28;20062;-88
2023/05/06 01:26:21;;;;;;;0.00;0.00;;;;;;;;;;5113236;28;20160;-88
2023/05/06 01:28:48;;;;;;;0.00;0.00;;;;;;;;;;5113573;28;20055;-89
2023/05/06 01:31:17;;;;;;;0.00;0.00;;;;;;;;;;5113059;28;20096;-89
2023/05/06 01:33:50;;;;;;;0.00;0.00;;;;;;;;;;5113417;28;20070;-89
2023/05/06 01:36:29;;;;;;;0.00;0.00;;;;;;;;;;5113291;28;20066;-89
2023/05/06 01:39:13;;;;;;;0.00;0.00;;;;;;;;;;5096353;28;20042;-88
2023/05/06 01:41:40;;;;;;;0.00;0.00;;;;;;;;;;5112935;28;20047;-89
2023/05/06 01:44:07;;;;;;;0.00;0.00;;;;;;;;;;5096498;28;20173;-88
2023/05/06 01:46:34;;;;;;;0.00;0.00;;;;;;;;;;5112894;28;20475;-89
2023/05/06 01:49:02;;;;;;;0.00;0.00;;;;;;;;;;5097063;28;20042;-88
2023/05/06 01:51:28;;;;;;;0.00;0.00;;;;;;;;;;5112516;28;20043;-88
2023/05/06 01:53:54;;;;;;;0.00;0.00;;;;;;;;;;5112980;28;20044;-89
2023/05/06 01:56:20;;;;;;;0.00;0.00;;;;;;;;;;5095695;28;20082;-88
2023/05/06 01:58:46;;;;;;;0.00;0.00;;;;;;;;;;5112969;28;20077;-89
2023/05/06 02:01:12;;;;;;;0.00;0.00;;;;;;;;;;5112765;28;20043;-88
2023/05/06 02:03:38;;;;;;;0.00;0.00;;;;;;;;;;5112566;28;20036;-89
2023/05/06 02:06:04;;;;;;;0.00;0.00;;;;;;;;;;5095249;28;20047;-88
2023/05/06 02:08:30;;;;;;;0.00;0.00;;;;;;;;;;5112399;28;20043;-88
2023/05/06 02:10:56;;;;;;;0.00;0.00;;;;;;;;;;5095254;28;20398;-88
2023/05/06 02:13:22;;;;;;;0.00;0.00;;;;;;;;;;5095456;28;20082;-87
2023/05/06 02:15:52;;;;;;;0.00;0.00;;;;;;;;;;5112277;28;20061;-88
2023/05/06 02:18:18;;;;;;;0.00;0.00;;;;;;;;;;5095363;28;20036;-89
2023/05/06 02:20:44;;;;;;;0.00;0.00;;;;;;;;;;5095409;28;20134;-88
2023/05/06 02:23:10;;;;;;;0.00;0.00;;;;;;;;;;5112442;28;20040;-88
2023/05/06 02:25:36;;;;;;;0.00;0.00;;;;;;;;;;5095062;28;20053;-88
2023/05/06 02:28:02;;;;;;;0.00;0.00;;;;;;;;;;5112141;28;20043;-88
2023/05/06 02:30:31;;;;;;;0.00;0.00;;;;;;;;;;5111878;28;20043;-89
2023/05/06 02:32:57;;;;;;;0.00;0.00;;;;;;;;;;5112023;28;20511;-88
2023/05/06 02:35:23;;;;;;;0.00;0.00;;;;;;;;;;5112083;28;20044;-89
2023/05/06 02:37:49;;;;;;;0.00;0.00;;;;;;;;;;5112216;28;20039;-88
2023/05/06 02:40:15;;;;;;;0.00;0.00;;;;;;;;;;5094939;28;20041;-88
2023/05/06 02:42:41;;;;;;;0.00;0.00;;;;;;;;;;5095399;28;20459;-88
2023/05/06 02:45:07;;;;;;;0.00;0.00;;;;;;;;;;5112018;28;20067;-87
2023/05/06 02:47:33;;;;;;;0.00;0.00;;;;;;;;;;5094738;28;20043;-88
2023/05/06 02:49:59;;;;;;;0.00;0.00;;;;;;;;;;5094775;28;20035;-88
2023/05/06 02:52:25;;;;;;;0.00;0.00;;;;;;;;;;5111559;28;20044;-89
2023/05/06 02:54:51;;;;;;;0.00;0.00;;;;;;;;;;5111774;28;20042;-89
2023/05/06 02:57:17;;;;;;;0.00;0.00;;;;;;;;;;5111833;28;20108;-88
2023/05/06 02:59:43;;;;;;;0.00;0.00;;;;;;;;;;5111675;28;20051;-88
2023/05/06 03:02:09;;;;;;;0.00;0.00;;;;;;;;;;5111372;28;20055;-89
2023/05/06 03:04:35;;;;;;;0.00;0.00;;;;;;;;;;5111709;28;20369;-89
2023/05/06 03:07:01;;;;;;;0.00;0.00;;;;;;;;;;5094462;28;20039;-89
2023/05/06 03:09:27;;;;;;;0.00;0.00;;;;;;;;;;5111349;28;20153;-88
2023/05/06 03:12:07;;;;;;;;;;;;;;;;;;5133802;27;20448;-89
2023/05/06 03:14:33;;;;;;;0.00;0.00;;;;;;;;;;5112546;28;19916;-89
2023/05/06 03:16:59;;;;;;;0.00;0.00;;;;;;;;;;5129133;28;20035;-89
2023/05/06 03:19:25;;;;;;;0.00;0.00;;;;;;;;;;5129347;27;20126;-89
2023/05/06 03:21:51;;;;;;;0.00;0.00;;;;;;;;;;5129240;28;20050;-89
2023/05/06 03:24:17;;;;;;;0.00;0.00;;;;;;;;;;5112325;28;20031;-89
2023/05/06 03:26:43;;;;;;;0.00;0.00;;;;;;;;;;5112137;28;20044;-89
2023/05/06 03:29:10;;;;;;;0.00;0.00;;;;;;;;;;5112206;28;20048;-89
2023/05/06 03:31:36;;;;;;;0.00;0.00;;;;;;;;;;5129034;27;20043;-88
2023/05/06 03:34:02;;;;;;;0.00;0.00;;;;;;;;;;5112259;28;20035;-88
2023/05/06 03:36:30;;;;;;;0.00;0.00;;;;;;;;;;5128886;28;20390;-89
2023/05/06 03:38:56;;;;;;;0.00;0.00;;;;;;;;;;5112044;28;20068;-88
2023/05/06 03:41:22;;;;;;;0.00;0.00;;;;;;;;;;5112221;28;20043;-88
2023/05/06 03:43:48;;;;;;;0.00;0.00;;;;;;;;;;5112210;28;20512;-88
2023/05/06 03:46:14;;;;;;;0.00;0.00;;;;;;;;;;5128780;28;20044;-88
2023/05/06 03:48:40;;;;;;;0.00;0.00;;;;;;;;;;5128978;27;20047;-88
2023/05/06 03:51:07;;;;;;;0.00;0.00;;;;;;;;;;5128891;27;20101;-89
2023/05/06 03:53:33;;;;;;;0.00;0.00;;;;;;;;;;5130717;27;20035;-89
2023/05/06 03:56:00;;;;;;;0.00;0.00;;;;;;;;;;5128551;27;20043;-89
2023/05/06 03:58:26;;;;;;;0.00;0.00;;;;;;;;;;5111846;28;20122;-89
2023/05/06 04:00:52;;;;;;;0.00;0.00;;;;;;;;;;5128586;28;20067;-88
2023/05/06 04:03:18;;;;;;;0.00;0.00;;;;;;;;;;5111691;28;20078;-89
2023/05/06 04:05:45;;;;;;;0.00;0.00;;;;;;;;;;5128622;28;20067;-88
2023/05/06 04:08:11;;;;;;;0.00;0.00;;;;;;;;;;5111532;28;20035;-89
2023/05/06 04:10:38;;;;;;;0.00;0.00;;;;;;;;;;5111429;28;20058;-89
2023/05/06 04:13:05;;;;;;;0.00;0.00;;;;;;;;;;5111229;28;20085;-88
2023/05/06 04:15:33;;;;;;;0.00;0.00;;;;;;;;;;5111090;28;20037;-89
2023/05/06 04:17:59;;;;;;;0.00;0.00;;;;;;;;;;5128415;28;20052;-89
2023/05/06 04:20:25;;;;;;;0.00;0.00;;;;;;;;;;5128652;27;20041;-89
2023/05/06 04:22:52;;;;;;;0.00;0.00;;;;;;;;;;5118313;28;20039;-89
2023/05/06 04:25:18;;;;;;;0.00;0.00;;;;;;;;;;5097899;28;20096;-88
2023/05/06 04:27:44;;;;;;;0.00;0.00;;;;;;;;;;5114493;28;20040;-88
2023/05/06 04:30:11;;;;;;;0.00;0.00;;;;;;;;;;5114686;28;20464;-89
2023/05/06 04:32:37;;;;;;;0.00;0.00;;;;;;;;;;5097651;28;20036;-88
2023/05/06 04:35:03;;;;;;;0.00;0.00;;;;;;;;;;5098281;28;20047;-88
2023/05/06 04:37:29;;;;;;;0.00;0.00;;;;;;;;;;5099549;28;20036;-89
2023/05/06 04:39:56;;;;;;;0.00;0.00;;;;;;;;;;5115715;28;20050;-88
2023/05/06 04:42:24;;;;;;;0.00;0.00;;;;;;;;;;5099966;28;20112;-88
2023/05/06 04:44:50;;;;;;;0.00;0.00;;;;;;;;;;5099839;28;20039;-88
2023/05/06 04:47:16;;;;;;;0.00;0.00;;;;;;;;;;5097749;28;20406;-88
2023/05/06 04:49:42;;;;;;;0.00;0.00;;;;;;;;;;5114307;28;20042;-88
2023/05/06 04:52:08;;;;;;;0.00;0.00;;;;;;;;;;5097612;28;20031;-92
2023/05/06 04:54:35;;;;;;;0.00;0.00;;;;;;;;;;5116344;28;20035;-88
2023/05/06 04:57:02;;;;;;;0.00;0.00;;;;;;;;;;5114302;28;20075;-88
2023/05/06 04:59:28;;;;;;;0.00;0.00;;;;;;;;;;5114217;28;20130;-88
2023/05/06 05:01:54;;;;;;;0.00;0.00;;;;;;;;;;5113909;28;20047;-89
2023/05/06 05:04:20;;;;;;;0.00;0.00;;;;;;;;;;5114216;28;20060;-89
2023/05/06 05:06:46;;;;;;;0.00;0.00;;;;;;;;;;5114105;28;20498;-88
2023/05/06 05:09:12;;;;;;;0.00;0.00;;;;;;;;;;5113548;28;20054;-89
2023/05/06 05:11:38;;;;;;;0.00;0.00;;;;;;;;;;5096563;28;20057;-88
2023/05/06 05:14:05;;;;;;;0.00;0.00;;;;;;;;;;5097100;28;20035;-89
2023/05/06 05:16:31;;;;;;;0.00;0.00;;;;;;;;;;5113955;28;20082;-89
2023/05/06 05:18:57;;;;;;;0.00;0.00;;;;;;;;;;5113603;28;20480;-89
2023/05/06 05:21:23;;;;;;;0.00;0.00;;;;;;;;;;5113695;28;20075;-89
2023/05/06 05:23:49;;;;;;;0.00;0.00;;;;;;;;;;5096649;28;20039;-88
2023/05/06 05:26:15;;;;;;;0.00;0.00;;;;;;;;;;5113572;28;20039;-88
2023/05/06 05:28:42;;;;;;;0.13;0.00;;;;;;;;;;5096233;28;20126;-88
2023/05/06 05:31:08;;;;;;;0.00;0.00;;;;;;;;;;5113375;28;20448;-88
2023/05/06 05:33:34;;;;;;;0.00;0.00;;;;;;;;;;5112260;28;20048;-89
2023/05/06 05:36:00;;;;;;;0.00;0.00;;;;;;;;;;5096377;28;20090;-88
2023/05/06 05:38:26;;;;;;;0.00;0.00;;;;;;;;;;5113242;28;20498;-89
2023/05/06 05:40:52;;;;;;;0.00;0.00;;;;;;;;;;5113245;28;20047;-89
2023/05/06 05:43:20;;;;;;;0.00;0.00;;;;;;;;;;5113319;28;20065;-89
2023/05/06 05:45:46;;;;;;;0.00;0.00;;;;;;;;;;5113204;28;20088;-89
2023/05/06 05:48:12;;;;;;;0.00;0.00;;;;;;;;;;5113170;28;20039;-89
2023/05/06 05:50:39;;;;;;;0.00;0.00;;;;;;;;;;5113164;28;20450;-90
2023/05/06 05:53:05;;;;;;;0.00;0.00;;;;;;;;;;5095961;28;20040;-89
2023/05/06 05:55:31;;;;;;;0.00;0.00;;;;;;;;;;5096037;28;20042;-89
2023/05/06 05:57:57;;;;;;;0.00;0.00;;;;;;;;;;5112945;28;20039;-89
2023/05/06 06:00:23;;;;;;;0.00;0.00;;;;;;;;;;5112891;28;20047;-89
2023/05/06 06:02:49;;;;;;;0.00;0.00;;;;;;;;;;5113061;28;20039;-89
2023/05/06 06:05:15;;;;;;;0.00;0.00;;;;;;;;;;5095821;28;20573;-90
2023/05/06 06:07:41;;;;;;;0.00;0.00;;;;;;;;;;5095747;28;20073;-89
2023/05/06 06:10:07;;;;;;;0.00;0.00;;;;;;;;;;5095494;28;20052;-89
2023/05/06 06:12:33;;;;;;;0.00;0.00;;;;;;;;;;5112578;28;20044;-90
2023/05/06 06:14:59;;;;;;;0.00;0.00;;;;;;;;;;5112866;28;20109;-90
2023/05/06 06:17:25;;;;;;;0.00;0.00;;;;;;;;;;5096089;28;20039;-89
2023/05/06 06:19:57;;;;;;;0.00;0.00;;;;;;;;;;5113126;28;20397;-92
2023/05/06 06:22:23;;;;;;;0.00;0.00;;;;;;;;;;5112794;28;20043;-88
2023/05/06 06:24:49;;;;;;;0.00;0.00;;;;;;;;;;5112878;28;20050;-89
2023/05/06 06:27:15;;;;;;;0.00;0.00;;;;;;;;;;5114072;28;20048;-89
2023/05/06 06:29:41;;;;;;;0.00;0.00;;;;;;;;;;5112191;28;20054;-89
2023/05/06 06:32:07;;;;;;;0.00;0.00;;;;;;;;;;5112223;28;20075;-88
2023/05/06 06:34:33;;;;;;;0.00;0.00;;;;;;;;;;5112156;28;20051;-88
2023/05/06 06:36:59;;;;;;;0.00;0.00;;;;;;;;;;5112315;28;20446;-89
2023/05/06 06:39:25;;;;;;;0.00;0.00;;;;;;;;;;5111714;28;20042;-88
2023/05/06 06:41:51;;;;;;;0.00;0.00;;;;;;;;;;5112150;28;20375;-89
2023/05/06 06:44:17;;;;;;;0.00;0.00;;;;;;;;;;5095157;28;20084;-88
2023/05/06 06:46:43;;;;;;;0.00;0.00;;;;;;;;;;5111989;28;20039;-89
2023/05/06 06:49:09;;;;;;;0.00;0.00;;;;;;;;;;5095176;28;20047;-89
2023/05/06 06:51:35;;;;;;;0.00;0.00;;;;;;;;;;5112182;28;20044;-88
2023/05/06 06:54:02;;;;;;;0.00;0.00;;;;;;;;;;5111638;28;20036;-89
2023/05/06 06:56:27;;;;;;;0.00;0.00;;;;;;;;;;5094733;28;20032;-89
2023/05/06 06:58:54;;;;;;;0.00;0.00;;;;;;;;;;5111595;28;20081;-90
2023/05/06 07:01:20;;;;;;;0.00;0.00;;;;;;;;;;5111911;28;20406;-88
2023/05/06 07:03:46;;;;;;;0.00;0.00;;;;;;;;;;5094746;28;20036;-89
2023/05/06 07:06:12;;;;;;;0.00;0.00;;;;;;;;;;5111807;28;20486;-89
2023/05/06 07:08:38;;;;;;;0.00;0.00;;;;;;;;;;5094907;28;20043;-89
2023/05/06 07:11:04;;;;;;;0.00;0.00;;;;;;;;;;5111263;28;20075;-89
2023/05/06 07:13:30;;;;;;;0.00;0.00;;;;;;;;;;5094585;28;20294;-89
2023/05/06 07:15:57;;;;;;;0.00;0.00;;;;;;;;;;5111897;28;20218;-89
2023/05/06 07:18:23;;;;;;;0.00;0.00;;;;;;;;;;5094591;28;20143;-88
2023/05/06 07:20:49;;;;;;;0.00;0.00;;;;;;;;;;5094589;28;20036;-89
2023/05/06 07:23:15;;;;;;;0.00;0.00;;;;;;;;;;5111675;28;20042;-89
2023/05/06 07:25:41;;;;;;;0.00;0.00;;;;;;;;;;5111616;28;20471;-89
2023/05/06 07:28:07;;;;;;;0.10;0.00;;;;;;;;;;5111533;28;20050;-88
2023/05/06 07:30:33;;;;;;;0.00;0.00;;;;;;;;;;5111829;28;20040;-92
2023/05/06 07:32:59;;;;;;;0.00;0.00;;;;;;;;;;5094893;28;20032;-88
2023/05/06 07:35:25;;;;;;;0.00;0.00;;;;;;;;;;5094691;28;20042;-88
2023/05/06 07:38:36;;;;;;;0.00;0.00;;;;;;;;;;5112941;28;20032;-96
2023/05/06 07:44:00;;;;;;;0.00;0.00;;;;;;;;;;5311922;23;20058;-91
2023/05/06 07:46:26;;;;;;;0.00;0.00;;;;;;;;;;4992013;28;20034;-87
2023/05/06 07:48:52;;;;;;;0.00;0.00;;;;;;;;;;4991603;28;20508;-87
2023/05/06 07:51:18;;;;;;;0.00;0.00;;;;;;;;;;4991517;28;20174;-87
2023/05/06 07:53:44;;;;;;;0.00;0.00;;;;;;;;;;4975179;28;20378;-87
2023/05/06 07:56:10;;;;;;;0.30;0.10;;;;;;;;;;4991534;28;20124;-87
2023/05/06 07:58:36;;;;;;;0.20;0.10;;;;;;;;;;4994401;28;20043;-90
2023/05/06 08:01:05;;;;;;;0.00;0.00;;;;;;;;;;4995083;28;20038;-89
2023/05/06 08:03:31;;;;;;;0.00;0.00;;;;;;;;;;4978765;28;20045;-89
2023/05/06 08:05:57;;;;;;;0.00;0.00;;;;;;;;;;4995876;28;20046;-91
2023/05/06 08:08:26;;;;;;;0.00;0.00;;;;;;;;;;4995568;28;20049;-87
2023/05/06 08:10:57;;;;;;;0.00;0.00;;;;;;;;;;4978621;28;20043;-88
2023/05/06 08:13:23;;;;;;;0.00;0.00;;;;;;;;;;4979036;28;20042;-87
2023/05/06 08:15:49;;;;;;;0.00;0.00;;;;;;;;;;4994880;28;20429;-86
2023/05/06 08:18:15;;;;;;;0.00;0.00;;;;;;;;;;4994913;28;20042;-88
2023/05/06 08:20:41;;;;;;;0.00;0.00;;;;;;;;;;4994536;28;20046;-86
2023/05/06 08:23:07;;;;;;;0.00;0.00;;;;;;;;;;4978454;28;20085;-86
2023/05/06 08:25:33;;;;;;;0.00;0.00;;;;;;;;;;4994192;28;20042;-86
2023/05/06 08:27:59;;;;;;;0.00;0.00;;;;;;;;;;4978486;28;20053;-87
2023/05/06 08:30:25;;;;;;;0.00;0.00;;;;;;;;;;4994032;28;20092;-86
2023/05/06 08:32:51;;;;;;;0.00;0.00;;;;;;;;;;4994423;28;20034;-86
2023/05/06 08:35:17;;;;;;;0.00;0.00;;;;;;;;;;4978198;28;20489;-86
2023/05/06 08:37:43;;;;;;;0.00;0.00;;;;;;;;;;4994506;28;20328;-86
2023/05/06 08:40:20;;;;;;;0.00;0.00;;;;;;;;;;4994043;28;20109;-86
2023/05/06 08:42:47;;;;;;;0.00;0.00;;;;;;;;;;4994559;28;20426;-87
2023/05/06 08:45:13;;;;;;;0.00;0.00;;;;;;;;;;4994117;28;20077;-87
2023/05/06 08:47:40;;;;;;;0.00;0.00;;;;;;;;;;4994135;28;20097;-86
2023/05/06 08:50:06;;;;;;;0.00;0.00;;;;;;;;;;4993815;28;20038;-86
2023/05/06 08:52:32;;;;;;;0.00;0.00;;;;;;;;;;4993978;28;20114;-86
2023/05/06 08:55:03;;;;;;;0.38;0.20;;;;;;;;;;4977717;28;20484;-87
2023/05/06 08:57:30;;;;;;;0.00;0.00;;;;;;;;;;4978074;28;20470;-87
2023/05/06 08:59:56;;;;;;;0.00;0.00;;;;;;;;;;4993559;28;20077;-86
2023/05/06 09:02:22;;;;;;;0.00;0.00;;;;;;;;;;4993805;28;20030;-87
2023/05/06 09:04:48;;;;;;;0.00;0.00;;;;;;;;;;4993606;28;20517;-86
2023/05/06 09:07:14;;;;;;;0.00;0.00;;;;;;;;;;4993671;28;20053;-87
2023/05/06 09:09:40;;;;;;;0.00;0.00;;;;;;;;;;4993441;28;20074;-87
2023/05/06 09:12:10;;;;;;;0.00;0.00;;;;;;;;;;4993742;28;20512;-87
2023/05/06 09:14:36;;;;;;;0.10;0.00;;;;;;;;;;4977470;28;20042;-87
2023/05/06 09:17:02;;;;;;;0.00;0.00;;;;;;;;;;4977284;28;20129;-87
2023/05/06 09:19:28;;;;;;;0.00;0.00;;;;;;;;;;4977160;28;20050;-87
2023/05/06 09:21:54;;;;;;;0.00;0.00;;;;;;;;;;4977433;28;20042;-87
2023/05/06 09:24:20;;;;;;;0.00;0.00;;;;;;;;;;4993187;28;20046;-87
2023/05/06 09:26:46;;;;;;;0.00;0.00;;;;;;;;;;4977315;28;20532;-88
2023/05/06 09:29:12;;;;;;;0.00;0.00;;;;;;;;;;4977013;28;20514;-88
2023/05/06 09:31:45;;;;;;;0.10;0.10;;;;;;;;;;4993271;28;20050;-87
2023/05/06 09:34:12;;;;;;;0.00;0.00;;;;;;;;;;4993321;28;20080;-87
2023/05/06 09:36:38;;;;;;;0.00;0.00;;;;;;;;;;4993061;28;20052;-87
2023/05/06 09:39:04;;;;;;;0.00;0.00;;;;;;;;;;4977172;28;20104;-86
2023/05/06 09:41:30;;;;;;;0.00;0.00;;;;;;;;;;4993118;28;20558;-86
2023/05/06 09:43:58;;;;;;;0.00;0.00;;;;;;;;;;4993093;28;20073;-86
2023/05/06 09:46:24;;;;;;;0.00;0.00;;;;;;;;;;4976932;28;20050;-86
2023/05/06 09:48:51;;;;;;;0.00;0.00;;;;;;;;;;4993102;28;20050;-86
2023/05/06 09:51:17;;;;;;;0.00;0.00;;;;;;;;;;4976900;28;20038;-87
2023/05/06 09:53:43;;;;;;;0.05;0.00;;;;;;;;;;4993708;28;20493;-87
2023/05/06 09:56:10;;;;;;;0.00;0.00;;;;;;;;;;4993189;28;20052;-86
2023/05/06 09:58:37;;;;;;;0.00;0.00;;;;;;;;;;4977599;28;20088;-86
2023/05/06 10:01:04;;;;;;;0.00;0.00;;;;;;;;;;4976848;28;20042;-86
2023/05/06 10:03:31;;;;;;;0.05;0.00;;;;;;;;;;4977077;28;20069;-87
2023/05/06 10:05:59;;;;;;;0.00;0.00;;;;;;;;;;4993042;28;20508;-86
2023/05/06 10:08:25;;;;;;;0.00;0.00;;;;;;;;;;4979491;28;20042;-86
2023/05/06 10:10:52;;;;;;;0.00;0.00;;;;;;;;;;4992521;28;20047;-87
2023/05/06 10:13:19;;;;;;;0.00;0.00;;;;;;;;;;4992741;28;20046;-86
2023/05/06 10:15:46;;;;;;;0.00;0.00;;;;;;;;;;4992348;28;20034;-87
2023/05/06 10:18:15;;;;;;;0.00;0.00;;;;;;;;;;4992432;28;20108;-87
2023/05/06 10:20:41;;;;;;;0.20;0.00;;;;;;;;;;4975504;28;20046;-87
2023/05/06 10:23:29;;;;;;;0.00;0.00;;;;;;;;;;4992578;28;20050;-87
2023/05/06 10:25:56;;;;;;;0.00;0.00;;;;;;;;;;4992235;28;20434;-87
2023/05/06 10:28:22;;;;;;;0.30;0.30;;;;;;;;;;4976362;28;20042;-86
2023/05/06 10:30:49;;;;;;;0.20;0.20;;;;;;;;;;4975642;28;20046;-87
2023/05/06 10:33:16;;;;;;;0.00;0.00;;;;;;;;;;4992161;28;20042;-86
2023/05/06 10:36:00;;;;;;;0.05;0.05;;;;;;;;;;4992028;28;20042;-87
2023/05/06 10:38:33;;;;;;;0.00;0.00;;;;;;;;;;4992066;28;20074;-87
2023/05/06 10:41:00;;;;;;;0.00;0.00;;;;;;;;;;4991771;28;20042;-87
2023/05/06 10:43:30;;;;;;;0.00;0.00;;;;;;;;;;4992004;28;20113;-86
2023/05/06 10:46:08;;;;;;;0.00;0.00;;;;;;;;;;4991800;28;20438;-85
2023/05/06 10:48:38;;;;;;;0.00;0.00;;;;;;;;;;4992156;28;20126;-87
2023/05/06 10:51:16;;;;;;;0.22;0.08;;;;;;;;;;4991593;28;20078;-87
2023/05/06 10:53:55;;;;;;;0.00;0.00;;;;;;;;;;4992763;28;20532;-87
2023/05/06 10:56:21;;;;;;;0.00;0.00;;;;;;;;;;4991572;28;20121;-87
2023/05/06 10:58:47;;;;;;;0.00;0.00;;;;;;;;;;4976166;28;20034;-87
2023/05/06 11:01:14;;;;;;;0.47;0.10;;;;;;;;;;4975921;28;20053;-87
2023/05/06 11:03:43;;;;;;;0.00;0.00;;;;;;;;;;4991921;28;20050;-87
2023/05/06 11:06:09;;;;;;;0.00;0.00;;;;;;;;;;4991572;28;20113;-87
2023/05/06 11:08:35;;;;;;;0.00;0.00;;;;;;;;;;4991610;28;20065;-86
2023/05/06 11:11:21;;;;;;;0.00;0.00;;;;;;;;;;4991357;28;20393;-86
2023/05/06 11:13:52;;;;;;;0.00;0.00;;;;;;;;;;4991755;28;20038;-88
2023/05/06 11:16:38;;;;;;;0.00;0.00;;;;;;;;;;4991604;28;20046;-88
2023/05/06 11:19:04;;;;;;;0.00;0.00;;;;;;;;;;4975506;28;20049;-86
2023/05/06 11:21:31;;;;;;;0.00;0.00;;;;;;;;;;4991487;28;20046;-87
2023/05/06 11:23:57;;;;;;;0.00;0.00;;;;;;;;;;4991810;28;20375;-88
2023/05/06 11:26:23;;;;;;;0.00;0.00;;;;;;;;;;4975156;28;20043;-87
2023/05/06 11:28:50;;;;;;;0.00;0.00;;;;;;;;;;4991445;28;20046;-87
2023/05/06 11:31:17;;;;;;;0.00;0.00;;;;;;;;;;4992757;28;20516;-85
2023/05/06 11:33:45;;;;;;;0.00;0.00;;;;;;;;;;4999149;28;20128;-86
2023/05/06 11:36:15;;;;;;;0.00;0.00;;;;;;;;;;4995557;28;20041;-86
2023/05/06 11:38:51;;;;;;;0.20;0.10;;;;;;;;;;4980668;28;20065;-87
2023/05/06 11:41:17;;;;;;;0.10;0.00;;;;;;;;;;4979579;28;20045;-86
2023/05/06 11:43:48;;;;;;;0.00;0.00;;;;;;;;;;4995547;28;20061;-87
2023/05/06 11:46:15;;;;;;;0.00;0.00;;;;;;;;;;4995299;28;20054;-86
2023/05/06 11:48:42;;;;;;;0.52;0.20;;;;;;;;;;4995448;28;20066;-87
2023/05/06 11:51:08;;;;;;;0.00;0.00;;;;;;;;;;4997849;28;20050;-86
2023/05/06 11:53:35;;;;;;;0.00;0.00;;;;;;;;;;4979392;28;20034;-86
2023/05/06 11:56:05;;;;;;;0.00;0.00;;;;;;;;;;4983150;28;20109;-86
2023/05/06 11:58:31;;;;;;;0.00;0.00;;;;;;;;;;4983547;28;20335;-86
2023/05/06 12:00:58;;;;;;;0.00;0.00;;;;;;;;;;4994809;28;20042;-87
2023/05/06 12:03:25;;;;;;;0.00;0.00;;;;;;;;;;4995517;28;20046;-87
2023/05/06 12:05:51;;;;;;;0.00;0.00;;;;;;;;;;4994577;28;20065;-86
2023/05/06 12:08:23;;;;;;;0.00;0.00;;;;;;;;;;4996199;28;20440;-87
2023/05/06 12:10:51;;;;;;;0.15;0.00;;;;;;;;;;4978769;28;20128;-85
2023/05/06 12:13:17;;;;;;;0.00;0.00;;;;;;;;;;4995032;28;20064;-87
2023/05/06 12:15:43;;;;;;;0.13;0.00;;;;;;;;;;4994888;28;20089;-86
2023/05/06 12:18:09;;;;;;;0.00;0.00;;;;;;;;;;4994787;28;20351;-86
2023/05/06 12:20:36;;;;;;;0.00;0.00;;;;;;;;;;4994331;28;20093;-86
2023/05/06 12:23:08;;;;;;;0.00;0.00;;;;;;;;;;4978207;28;20445;-87
2023/05/06 12:25:34;;;;;;;0.00;0.00;;;;;;;;;;4978218;28;20046;-87
2023/05/06 12:28:00;;;;;;;0.00;0.00;;;;;;;;;;4978167;28;20130;-86
2023/05/06 12:30:33;;;;;;;0.00;0.00;;;;;;;;;;4978416;28;20347;-87
2023/05/06 12:32:59;;;;;;;0.10;0.00;;;;;;;;;;4994133;28;20042;-86
2023/05/06 12:35:29;;;;;;;0.10;0.10;;;;;;;;;;4994521;28;20039;-87
2023/05/06 12:37:55;;;;;;;0.47;0.08;;;;;;;;;;4977870;28;20107;-86
2023/05/06 12:40:21;;;;;;;0.00;0.00;;;;;;;;;;4978052;28;20182;-86
2023/05/06 12:42:54;;;;;;;0.00;0.00;;;;;;;;;;4977349;28;20097;-87
2023/05/06 12:45:20;;;;;;;0.00;0.00;;;;;;;;;;4978083;28;20050;-86
2023/05/06 12:47:57;;;;;;;0.00;0.00;;;;;;;;;;4977407;28;20053;-86
2023/05/06 12:50:36;;;;;;;0.00;0.00;;;;;;;;;;4977667;28;20074;-87
2023/05/06 12:53:03;;;;;;;0.00;0.00;;;;;;;;;;4995213;28;20043;-86
2023/05/06 12:55:30;;;;;;;0.00;0.00;;;;;;;;;;4993833;28;20053;-86
2023/05/06 12:57:56;;;;;;;0.00;0.00;;;;;;;;;;4994177;28;20108;-86
2023/05/06 13:00:22;;;;;;;0.00;0.00;;;;;;;;;;4994073;28;20514;-85
2023/05/06 13:02:48;;;;;;;0.00;0.00;;;;;;;;;;4993520;28;20122;-86
2023/05/06 13:05:14;;;;;;;0.00;0.00;;;;;;;;;;4994070;28;20073;-86
2023/05/06 13:07:40;;;;;;;0.00;0.00;;;;;;;;;;4993897;28;20046;-85
2023/05/06 13:10:06;;;;;;;0.08;0.00;;;;;;;;;;4993397;28;20442;-85
2023/05/06 13:12:33;;;;;;;0.00;0.00;;;;;;;;;;4977412;28;20101;-86
2023/05/06 13:14:59;;;;;;;0.10;0.05;;;;;;;;;;4977409;28;20118;-85
2023/05/06 13:17:25;;;;;;;0.00;0.00;;;;;;;;;;4994009;28;20401;-86
2023/05/06 13:19:55;;;;;;;0.10;0.00;;;;;;;;;;4994048;28;20441;-85
2023/05/06 13:22:23;;;;;;;0.00;0.00;;;;;;;;;;4993518;28;20073;-85
2023/05/06 13:24:49;;;;;;;0.00;0.00;;;;;;;;;;4993532;28;20054;-85
2023/05/06 13:27:15;;;;;;;0.00;0.00;;;;;;;;;;4993003;28;20136;-86
2023/05/06 13:29:41;;;;;;;0.00;0.00;;;;;;;;;;4977020;28;20044;-85
2023/05/06 13:32:07;;;;;;;0.10;0.00;;;;;;;;;;4992787;28;20038;-87
2023/05/06 13:34:33;;;;;;;0.00;0.00;;;;;;;;;;4993393;28;20053;-87
2023/05/06 13:36:59;;;;;;;0.00;0.00;;;;;;;;;;4977176;28;20046;-86
2023/05/06 13:39:25;;;;;;;0.03;0.00;;;;;;;;;;4993083;28;20181;-85
2023/05/06 13:41:51;;;;;;;0.00;0.00;;;;;;;;;;4992819;28;20094;-85
2023/05/06 13:44:21;;;;;;;0.00;0.00;;;;;;;;;;4993033;28;20102;-87
2023/05/06 13:46:47;;;;;;;0.00;0.00;;;;;;;;;;4992877;28;20125;-86
2023/05/06 13:49:14;;;;;;;0.00;0.00;;;;;;;;;;4993225;28;20057;-86
2023/05/06 13:51:40;;;;;;;0.00;0.00;;;;;;;;;;4993013;28;20462;-86
2023/05/06 13:54:06;;;;;;;0.00;0.00;;;;;;;;;;4976349;28;20104;-86
2023/05/06 13:56:32;;;;;;;0.00;0.00;;;;;;;;;;4992595;28;20042;-85
2023/05/06 13:58:58;;;;;;;0.00;0.00;;;;;;;;;;4992587;28;20043;-87
2023/05/06 14:01:24;;;;;;;0.00;0.00;;;;;;;;;;4992558;28;20499;-87
2023/05/06 14:03:50;;;;;;;0.00;0.00;;;;;;;;;;4976170;28;20053;-87
2023/05/06 14:06:16;;;;;;;0.00;0.00;;;;;;;;;;4993099;28;20132;-87
2023/05/06 14:08:42;;;;;;;0.00;0.00;;;;;;;;;;4992786;28;20081;-86
2023/05/06 14:11:11;;;;;;;0.00;0.00;;;;;;;;;;4992621;28;20046;-86
2023/05/06 14:13:38;;;;;;;0.00;0.00;;;;;;;;;;4992141;28;20066;-86
2023/05/06 14:16:04;;;;;;;0.00;0.00;;;;;;;;;;4993932;28;20101;-86
2023/05/06 14:18:33;;;;;;;0.00;0.00;;;;;;;;;;4976788;28;20401;-86
2023/05/06 14:20:59;;;;;;;0.00;0.00;;;;;;;;;;4992369;28;20042;-86
2023/05/06 14:23:25;;;;;;;0.00;0.00;;;;;;;;;;4992814;28;20041;-86
2023/05/06 14:25:51;;;;;;;0.00;0.00;;;;;;;;;;4992546;28;20180;-87
2023/05/06 14:28:17;;;;;;;0.00;0.00;;;;;;;;;;4992615;28;20046;-89
2023/05/06 14:30:43;;;;;;;0.00;0.00;;;;;;;;;;4992723;28;20042;-86
2023/05/06 14:33:10;;;;;;;0.00;0.00;;;;;;;;;;4976032;28;20048;-86
2023/05/06 14:35:39;;;;;;;0.00;0.00;;;;;;;;;;4976354;28;20390;-85
2023/05/06 14:38:05;;;;;;;0.00;0.00;;;;;;;;;;4993140;28;20129;-85
2023/05/06 14:40:32;;;;;;;0.00;0.00;;;;;;;;;;4992140;28;20050;-87
2023/05/06 14:42:58;;;;;;;0.00;0.00;;;;;;;;;;4991808;28;20069;-86
2023/05/06 14:45:24;;;;;;;0.00;0.00;;;;;;;;;;4976192;28;20081;-86